Orchard, Nebraska
Current Conditions -  °F | °C
As of 6:55 AM on Saturday 25 Oct 2014 (Local Time) from KONL Reporting Station
Clear Clear  
Wind Chill: 39°   Ceiling: Unl
Heat Index: 43°   Visibility: 10mi
Dew Point: 38°   Wind: 7mph
Humidity: 82%   Direction: 10°N
Pressure: 30.13"   Gusts: NA
Location:  42.34°N, 98.24°W
Report Text: KONL 251155Z AUTO 01006KT 10SM CLR 06/03 A3013 RMK AO2 T00610032 10116 20061
Loading
Personal Weather Stations






























Interactive Weather Map
Tropical Storm Tracking
New forecast layout! Learn more

10-Day Weather Forecast

Advertisements
Track Severe Weather on mobile